createdAt,value
2023-04-12T00:01:11.058Z,1012.41
2023-04-12T00:03:11.049Z,1012.41
2023-04-12T00:05:11.075Z,1012.45
2023-04-12T00:07:10.972Z,1012.45
2023-04-12T00:09:10.996Z,1012.38
2023-04-12T00:11:11.343Z,1012.38
2023-04-12T00:13:11.276Z,1012.28
2023-04-12T00:15:11.020Z,1012.27
2023-04-12T00:17:15.856Z,1012.27
2023-04-12T00:19:11.029Z,1012.19
2023-04-12T00:21:11.009Z,1012.19
2023-04-12T00:23:11.105Z,1012.18
2023-04-12T00:25:11.263Z,1012.16
2023-04-12T00:27:11.137Z,1012.17
2023-04-12T00:29:13.494Z,1012.14
2023-04-12T00:31:11.052Z,1012.14
2023-04-12T00:33:11.024Z,1012.08
2023-04-12T00:35:11.077Z,1012.03
2023-04-12T00:37:10.988Z,1012.02
2023-04-12T00:39:11.312Z,1012.02
2023-04-12T00:41:10.984Z,1012.01
2023-04-12T00:43:11.014Z,1011.98
2023-04-12T00:45:11.125Z,1011.98
2023-04-12T00:47:11.098Z,1012.05
2023-04-12T00:49:11.089Z,1012.05
2023-04-12T00:51:11.019Z,1012.06
2023-04-12T00:53:11.224Z,1012.02
2023-04-12T00:55:11.033Z,1011.97
2023-04-12T00:57:11.015Z,1011.97
2023-04-12T00:59:13.116Z,1011.97
2023-04-12T01:01:11.136Z,1011.92
2023-04-12T01:03:11.180Z,1011.91
2023-04-12T01:05:11.144Z,1011.92
2023-04-12T01:07:11.002Z,1011.92
2023-04-12T01:09:11.071Z,1011.93
2023-04-12T01:11:11.083Z,1011.90
2023-04-12T01:13:11.052Z,1011.89
2023-04-12T01:15:11.047Z,1011.88
2023-04-12T01:17:15.430Z,1011.88
2023-04-12T01:19:14.070Z,1011.91
2023-04-12T01:21:11.045Z,1011.85
2023-04-12T01:23:11.916Z,1011.81
2023-04-12T01:25:11.041Z,1011.80
2023-04-12T01:27:11.031Z,1011.80
2023-04-12T01:29:11.032Z,1011.71
2023-04-12T01:31:11.307Z,1011.70
2023-04-12T01:33:11.032Z,1011.70
2023-04-12T01:35:11.108Z,1011.70
2023-04-12T01:39:19.877Z,1011.62
2023-04-12T01:41:11.040Z,1011.51
2023-04-12T01:43:13.610Z,1011.49
2023-04-12T01:45:11.024Z,1011.49
2023-04-12T01:48:15.101Z,1011.44
2023-04-12T01:50:11.037Z,1011.44
2023-04-12T01:52:11.021Z,1011.43
2023-04-12T01:54:11.057Z,1011.41
2023-04-12T01:56:11.102Z,1011.37
2023-04-12T01:58:11.054Z,1011.33
2023-04-12T02:00:11.021Z,1011.33
2023-04-12T02:02:12.492Z,1011.29
2023-04-12T02:04:11.050Z,1011.27
2023-04-12T02:06:11.116Z,1011.22
2023-04-12T02:08:10.982Z,1011.22
2023-04-12T02:10:17.038Z,1011.20
2023-04-12T02:12:11.158Z,1011.15
2023-04-12T02:14:14.493Z,1011.13
2023-04-12T02:16:11.178Z,1011.13
2023-04-12T02:18:15.920Z,1011.13
2023-04-12T02:20:13.668Z,1011.13
2023-04-12T02:22:11.005Z,1011.08
2023-04-12T02:24:11.230Z,1011.02
2023-04-12T02:26:11.030Z,1011.00
2023-04-12T02:28:11.051Z,1011.00
2023-04-12T02:30:14.702Z,1010.90
2023-04-12T02:32:11.089Z,1010.85
2023-04-12T02:34:11.176Z,1010.79
2023-04-12T02:36:11.048Z,1010.79
2023-04-12T02:38:13.726Z,1010.72
2023-04-12T02:40:11.192Z,1010.70
2023-04-12T02:42:11.033Z,1010.65
2023-04-12T02:44:11.043Z,1010.59
2023-04-12T02:46:11.041Z,1010.59
2023-04-12T02:48:11.087Z,1010.56
2023-04-12T02:50:11.042Z,1010.55
2023-04-12T02:52:11.043Z,1010.52
2023-04-12T02:54:11.052Z,1010.50
2023-04-12T02:56:11.059Z,1010.50
2023-04-12T02:58:10.998Z,1010.44
2023-04-12T03:00:11.052Z,1010.44
2023-04-12T03:02:11.118Z,1010.41
2023-04-12T03:04:11.198Z,1010.41
2023-04-12T03:06:11.119Z,1010.36
2023-04-12T03:08:14.843Z,1010.31
2023-04-12T03:10:11.055Z,1010.23
2023-04-12T03:12:11.555Z,1010.19
2023-04-12T03:14:13.157Z,1010.19
2023-04-12T03:16:11.479Z,1010.08
2023-04-12T03:18:11.151Z,1010.06
2023-04-12T03:20:11.121Z,1010.03
2023-04-12T03:22:11.141Z,1010.00
2023-04-12T03:24:11.091Z,1010.00
2023-04-12T03:26:11.017Z,1009.98
2023-04-12T03:28:11.127Z,1009.90
2023-04-12T03:30:11.084Z,1009.86
2023-04-12T03:32:11.133Z,1009.83
2023-04-12T03:34:11.082Z,1009.83
2023-04-12T03:36:11.104Z,1009.81
2023-04-12T03:38:11.091Z,1009.76
2023-04-12T03:40:13.903Z,1009.76
2023-04-12T03:42:21.545Z,1009.76
2023-04-12T03:44:11.337Z,1009.69
2023-04-12T03:46:11.189Z,1009.67
2023-04-12T03:48:11.095Z,1009.65
2023-04-12T03:50:12.308Z,1009.62
2023-04-12T03:52:11.078Z,1009.62
2023-04-12T03:54:15.296Z,1009.54
2023-04-12T03:56:11.083Z,1009.47
2023-04-12T03:58:11.073Z,1009.39
2023-04-12T04:00:11.105Z,1009.35
2023-04-12T04:02:11.192Z,1009.35
2023-04-12T04:04:11.396Z,1009.21
2023-04-12T04:06:11.073Z,1009.17
2023-04-12T04:08:11.114Z,1009.16
2023-04-12T04:10:11.223Z,1009.16
2023-04-12T04:12:11.218Z,1009.11
2023-04-12T04:14:11.120Z,1009.10
2023-04-12T04:16:11.197Z,1009.03
2023-04-12T04:18:11.192Z,1008.98
2023-04-12T04:20:18.966Z,1008.98
2023-04-12T04:22:11.154Z,1008.98
2023-04-12T04:24:11.120Z,1008.97
2023-04-12T04:26:11.439Z,1008.91
2023-04-12T04:28:11.217Z,1008.88
2023-04-12T04:30:11.252Z,1008.88
2023-04-12T04:32:11.183Z,1008.89
2023-04-12T04:34:12.796Z,1008.88
2023-04-12T04:36:11.266Z,1008.92
2023-04-12T04:38:11.206Z,1008.92
2023-04-12T04:40:14.328Z,1008.88
2023-04-12T04:42:11.145Z,1008.82
2023-04-12T04:44:11.338Z,1008.81
2023-04-12T04:46:11.186Z,1008.81
2023-04-12T04:48:11.275Z,1008.81
2023-04-12T04:52:11.263Z,1008.71
2023-04-12T04:54:11.110Z,1008.73
2023-04-12T04:58:23.128Z,1008.74
2023-04-12T05:00:22.955Z,1008.76
2023-04-12T05:02:23.031Z,1008.76
2023-04-12T05:04:22.942Z,1008.64
2023-04-12T05:06:22.972Z,1008.64
2023-04-12T05:08:23.921Z,1008.63
2023-04-12T05:10:22.953Z,1008.59
2023-04-12T05:12:23.096Z,1008.63
2023-04-12T05:14:23.388Z,1008.59
2023-04-12T05:16:24.515Z,1008.51
2023-04-12T05:18:22.977Z,1008.51
2023-04-12T05:20:23.894Z,1008.51
2023-04-12T05:22:22.914Z,1008.52
2023-04-12T05:24:22.940Z,1008.52
2023-04-12T05:26:22.877Z,1008.52
2023-04-12T05:28:23.033Z,1008.53
2023-04-12T05:30:23.030Z,1008.51
2023-04-12T05:32:24.855Z,1008.39
2023-04-12T05:34:22.938Z,1008.39
2023-04-12T05:36:22.913Z,1008.39
2023-04-12T05:38:22.976Z,1008.42
2023-04-12T05:40:22.936Z,1008.47
2023-04-12T05:42:22.921Z,1008.47
2023-04-12T05:44:23.121Z,1008.47
2023-04-12T05:46:22.996Z,1008.45
2023-04-12T05:48:22.921Z,1008.43
2023-04-12T05:50:23.016Z,1008.36
2023-04-12T05:52:23.038Z,1008.36
2023-04-12T05:54:23.034Z,1008.36
2023-04-12T05:56:25.601Z,1008.38
2023-04-12T05:58:22.939Z,1008.38
2023-04-12T06:00:22.976Z,1008.31
2023-04-12T06:02:23.091Z,1008.27
2023-04-12T06:04:25.091Z,1008.27
2023-04-12T06:06:22.981Z,1008.24
2023-04-12T06:08:23.019Z,1008.24
2023-04-12T06:10:25.839Z,1008.22
2023-04-12T06:13:23.349Z,1008.16
2023-04-12T06:15:23.017Z,1008.15
2023-04-12T06:17:23.042Z,1008.15
2023-04-12T06:18:27.871Z,1008.19
2023-04-12T06:21:22.954Z,1008.18
2023-04-12T06:23:22.970Z,1008.18
2023-04-12T06:25:23.235Z,1008.16
2023-04-12T06:27:23.064Z,1008.16
2023-04-12T06:29:22.990Z,1008.15
2023-04-12T06:31:23.171Z,1008.09
2023-04-12T06:33:23.011Z,1008.13
2023-04-12T06:35:22.973Z,1008.13
2023-04-12T06:37:26.007Z,1008.06
2023-04-12T06:39:22.992Z,1008.06
2023-04-12T06:41:24.203Z,1007.96
2023-04-12T06:43:23.002Z,1007.94
2023-04-12T06:45:22.989Z,1007.94
2023-04-12T06:47:23.114Z,1007.85
2023-04-12T06:49:23.029Z,1007.80
2023-04-12T06:51:27.872Z,1007.71
2023-04-12T06:53:22.986Z,1007.64
2023-04-12T06:55:22.965Z,1007.64
2023-04-12T06:57:23.385Z,1007.54
2023-04-12T06:59:23.191Z,1007.48
2023-04-12T07:01:23.109Z,1007.36
2023-04-12T07:03:23.026Z,1007.36
2023-04-12T07:05:22.978Z,1007.36
2023-04-12T07:07:24.386Z,1007.35
2023-04-12T07:09:23.332Z,1007.26
2023-04-12T07:11:23.442Z,1007.19
2023-04-12T07:13:25.286Z,1007.07
2023-04-12T07:15:23.306Z,1007.07
2023-04-12T07:17:23.057Z,1007.05
2023-04-12T07:19:22.983Z,1006.96
2023-04-12T07:21:22.969Z,1006.90
2023-04-12T07:23:22.971Z,1006.90
2023-04-12T07:25:23.024Z,1006.74
2023-04-12T07:27:22.979Z,1006.68
2023-04-12T07:29:23.044Z,1006.65
2023-04-12T07:31:22.961Z,1006.63
2023-04-12T07:33:23.220Z,1006.63
2023-04-12T07:35:23.021Z,1006.63
2023-04-12T07:37:22.995Z,1006.53
2023-04-12T07:39:23.424Z,1006.48
2023-04-12T07:41:23.066Z,1006.48
2023-04-12T07:43:23.053Z,1006.49
2023-04-12T07:45:23.074Z,1006.49
2023-04-12T07:47:23.085Z,1006.40
2023-04-12T07:49:25.239Z,1006.38
2023-04-12T07:51:22.996Z,1006.38
2023-04-12T07:53:23.108Z,1006.27
2023-04-12T07:55:23.190Z,1006.29
2023-04-12T07:57:23.104Z,1006.24
2023-04-12T07:59:23.024Z,1006.21
2023-04-12T08:01:23.074Z,1006.21
2023-04-12T08:03:23.147Z,1006.22
2023-04-12T08:05:23.086Z,1006.16
2023-04-12T08:07:23.051Z,1006.10
2023-04-12T08:09:23.226Z,1006.10
2023-04-12T08:11:23.084Z,1006.14
2023-04-12T08:13:23.104Z,1006.11
2023-04-12T08:15:27.928Z,1006.08
2023-04-12T08:17:23.109Z,1005.99
2023-04-12T08:19:23.203Z,1005.99
2023-04-12T08:21:23.246Z,1005.84
2023-04-12T08:23:23.109Z,1005.81
2023-04-12T08:25:23.167Z,1005.81
2023-04-12T08:27:23.187Z,1005.69
2023-04-12T08:29:23.152Z,1005.69
2023-04-12T08:31:23.330Z,1005.57
2023-04-12T08:33:25.598Z,1005.43
2023-04-12T08:35:23.358Z,1005.38
2023-04-12T08:37:23.031Z,1005.28
2023-04-12T08:39:23.248Z,1005.28
2023-04-12T08:41:23.024Z,1005.31
2023-04-12T08:43:23.023Z,1005.24
2023-04-12T08:45:23.054Z,1005.33
2023-04-12T08:47:23.623Z,1005.33
2023-04-12T08:49:23.769Z,1005.39
2023-04-12T08:51:23.065Z,1005.39
2023-04-12T08:53:23.233Z,1005.41
2023-04-12T08:55:23.363Z,1005.42
2023-04-12T08:57:23.086Z,1005.42
2023-04-12T08:59:23.044Z,1005.44
2023-04-12T09:01:23.130Z,1005.38
2023-04-12T09:03:23.322Z,1005.39
2023-04-12T09:05:23.178Z,1005.39
2023-04-12T09:07:23.076Z,1005.39
2023-04-12T09:09:23.090Z,1005.25
2023-04-12T09:11:23.156Z,1005.25
2023-04-12T09:13:23.089Z,1005.26
2023-04-12T09:15:23.108Z,1005.26
2023-04-12T09:17:23.139Z,1005.23
2023-04-12T09:19:23.209Z,1005.19
2023-04-12T09:21:23.437Z,1005.20
2023-04-12T09:23:23.076Z,1005.18
2023-04-12T09:25:23.123Z,1005.18
2023-04-12T09:27:23.190Z,1005.17
2023-04-12T09:29:23.080Z,1005.16
2023-04-12T09:31:23.194Z,1005.16
2023-04-12T09:33:29.023Z,1005.13
2023-04-12T09:35:23.367Z,1005.13
2023-04-12T09:37:23.092Z,1005.04
2023-04-12T09:39:23.112Z,1004.99
2023-04-12T09:41:26.491Z,1004.99
2023-04-12T09:43:23.076Z,1004.99
2023-04-12T09:45:23.267Z,1004.99
2023-04-12T09:47:27.856Z,1004.99
2023-04-12T09:49:23.087Z,1004.87
2023-04-12T09:52:23.247Z,1004.92
2023-04-12T09:54:23.105Z,1004.96
2023-04-12T09:56:23.211Z,1004.89
2023-04-12T09:58:23.212Z,1004.89
2023-04-12T10:00:23.171Z,1004.87
2023-04-12T10:02:25.967Z,1004.82
2023-04-12T10:04:23.477Z,1004.78
2023-04-12T10:06:23.165Z,1004.77
2023-04-12T10:08:23.144Z,1004.77
2023-04-12T10:10:23.258Z,1004.70
2023-04-12T10:12:23.212Z,1004.66
2023-04-12T10:14:23.242Z,1004.65
2023-04-12T10:16:26.652Z,1004.58
2023-04-12T10:18:23.184Z,1004.58
2023-04-12T10:20:26.190Z,1004.45
2023-04-12T10:22:23.223Z,1004.45
2023-04-12T10:24:23.256Z,1004.41
2023-04-12T10:26:23.103Z,1004.41
2023-04-12T10:28:23.194Z,1004.41
2023-04-12T10:30:23.409Z,1004.39
2023-04-12T10:32:23.330Z,1004.32
2023-04-12T10:34:23.111Z,1004.40
2023-04-12T10:36:23.238Z,1004.40
2023-04-12T10:38:23.310Z,1004.35
2023-04-12T10:40:23.276Z,1004.37
2023-04-12T10:42:23.283Z,1004.41
2023-04-12T10:44:23.239Z,1004.41
2023-04-12T10:46:23.701Z,1004.35
2023-04-12T10:48:23.329Z,1004.30
2023-04-12T10:50:23.226Z,1004.34
2023-04-12T10:52:26.741Z,1004.27
2023-04-12T10:54:23.224Z,1004.27
2023-04-12T10:56:23.201Z,1004.26
2023-04-12T10:58:23.190Z,1004.27
2023-04-12T11:00:23.283Z,1004.33
2023-04-12T11:02:23.430Z,1004.40
2023-04-12T11:06:27.530Z,1004.21
2023-04-12T11:08:23.257Z,1004.21
2023-04-12T11:12:37.103Z,1004.13
2023-04-12T11:14:38.769Z,1004.11
2023-04-12T11:16:37.124Z,1004.11
2023-04-12T11:18:38.367Z,1003.98
2023-04-12T11:20:37.106Z,1004.02
2023-04-12T11:22:36.887Z,1004.03
2023-04-12T11:24:36.902Z,1003.98
2023-04-12T11:26:36.882Z,1003.98
2023-04-12T11:28:36.874Z,1003.99
2023-04-12T11:30:36.940Z,1003.92
2023-04-12T11:32:36.866Z,1003.86
2023-04-12T11:34:36.955Z,1003.81
2023-04-12T11:36:36.925Z,1003.81
2023-04-12T11:38:36.943Z,1003.85
2023-04-12T11:40:41.845Z,1003.89
2023-04-12T11:42:41.818Z,1003.78
2023-04-12T11:44:52.456Z,1003.78
2023-04-12T11:46:36.872Z,1003.74
2023-04-12T11:48:36.878Z,1003.74
2023-04-12T11:50:36.955Z,1003.53
2023-04-12T11:52:39.467Z,1003.48
2023-04-12T11:54:36.896Z,1003.48
2023-04-12T11:56:36.843Z,1003.47
2023-04-12T11:58:36.964Z,1003.46
2023-04-12T12:00:36.953Z,1003.55
2023-04-12T12:02:43.569Z,1003.50
2023-04-12T12:04:37.240Z,1003.50
2023-04-12T12:06:37.359Z,1003.43
2023-04-12T12:08:36.949Z,1003.44
2023-04-12T12:10:51.998Z,1003.39
2023-04-12T12:12:36.981Z,1003.39
2023-04-12T12:14:36.990Z,1003.31
2023-04-12T12:16:36.981Z,1003.32
2023-04-12T12:18:37.029Z,1003.31
2023-04-12T12:20:41.986Z,1003.27
2023-04-12T12:22:36.980Z,1003.27
2023-04-12T12:24:42.048Z,1003.35
2023-04-12T12:26:36.912Z,1003.34
2023-04-12T12:28:36.873Z,1003.34
2023-04-12T12:30:36.958Z,1003.21
2023-04-12T12:32:37.163Z,1003.21
2023-04-12T12:34:36.870Z,1003.27
2023-04-12T12:36:37.211Z,1003.23
2023-04-12T12:38:37.760Z,1003.24
2023-04-12T12:40:36.976Z,1003.12
2023-04-12T12:42:37.394Z,1003.12
2023-04-12T12:44:37.814Z,1003.14
2023-04-12T12:48:37.203Z,1003.16
2023-04-12T12:50:36.943Z,1003.16
2023-04-12T12:52:36.974Z,1003.10
2023-04-12T12:54:41.644Z,1003.10
2023-04-12T12:56:39.222Z,1003.06
2023-04-12T12:58:37.843Z,1003.08
2023-04-12T13:00:36.981Z,1003.08
2023-04-12T13:02:37.063Z,1002.94
2023-04-12T13:04:37.124Z,1002.99
2023-04-12T13:06:36.953Z,1002.95
2023-04-12T13:08:36.991Z,1002.95
2023-04-12T13:10:36.965Z,1002.95
2023-04-12T13:12:37.066Z,1002.93
2023-04-12T13:14:37.937Z,1002.76
2023-04-12T13:16:36.956Z,1002.70
2023-04-12T13:18:36.917Z,1002.70
2023-04-12T13:20:37.101Z,1002.67
2023-04-12T13:22:36.961Z,1002.60
2023-04-12T13:24:41.777Z,1002.66
2023-04-12T13:26:39.591Z,1002.66
2023-04-12T13:28:36.930Z,1002.66
2023-04-12T13:30:36.915Z,1002.65
2023-04-12T13:32:36.991Z,1002.56
2023-04-12T13:34:36.960Z,1002.52
2023-04-12T13:36:36.956Z,1002.52
2023-04-12T13:38:36.943Z,1002.52
2023-04-12T13:40:36.926Z,1002.44
2023-04-12T13:42:36.951Z,1002.46
2023-04-12T13:44:36.956Z,1002.39
2023-04-12T13:46:39.023Z,1002.39
2023-04-12T13:48:37.050Z,1002.37
2023-04-12T13:50:37.108Z,1002.37
2023-04-12T13:52:37.114Z,1002.27
2023-04-12T13:54:36.923Z,1002.41
2023-04-12T13:56:37.865Z,1002.41
2023-04-12T13:58:36.921Z,1002.23
2023-04-12T14:00:36.936Z,1002.22
2023-04-12T14:02:42.524Z,1002.24
2023-04-12T14:04:37.422Z,1002.23
2023-04-12T14:06:41.829Z,1002.23
2023-04-12T14:08:36.932Z,1002.26
2023-04-12T14:10:37.063Z,1002.24
2023-04-12T14:12:36.994Z,1002.20
2023-04-12T14:14:36.937Z,1002.20
2023-04-12T14:16:36.964Z,1002.13
2023-04-12T14:18:37.153Z,1002.13
2023-04-12T14:20:37.138Z,1002.09
2023-04-12T14:22:37.245Z,1002.02
2023-04-12T14:24:37.205Z,1002.02
2023-04-12T14:27:36.956Z,1002.07
2023-04-12T14:29:37.062Z,1002.07
2023-04-12T14:31:37.164Z,1002.07
2023-04-12T14:33:36.974Z,1001.98
2023-04-12T14:34:42.430Z,1001.98
2023-04-12T14:37:37.031Z,1001.96
2023-04-12T14:39:37.064Z,1001.96
2023-04-12T14:41:36.950Z,1001.90
2023-04-12T14:42:41.963Z,1001.90
2023-04-12T14:45:36.999Z,1001.85
2023-04-12T14:47:37.188Z,1001.85
2023-04-12T14:49:37.022Z,1001.85
2023-04-12T14:51:37.015Z,1001.86
2023-04-12T14:53:37.822Z,1001.76
2023-04-12T14:55:37.003Z,1001.79
2023-04-12T14:57:37.078Z,1001.79
2023-04-12T14:59:37.678Z,1001.70
2023-04-12T15:01:37.016Z,1001.63
2023-04-12T15:03:37.249Z,1001.62
2023-04-12T15:05:36.960Z,1001.62
2023-04-12T15:07:37.004Z,1001.62
2023-04-12T15:09:41.862Z,1001.69
2023-04-12T15:11:37.009Z,1001.69
2023-04-12T15:13:37.081Z,1001.67
2023-04-12T15:15:36.971Z,1001.67
2023-04-12T15:17:37.029Z,1001.51
2023-04-12T15:19:39.849Z,1001.57
2023-04-12T15:21:37.105Z,1001.55
2023-04-12T15:23:37.004Z,1001.64
2023-04-12T15:25:36.972Z,1001.64
2023-04-12T15:27:37.053Z,1001.61
2023-04-12T15:29:36.981Z,1001.65
2023-04-12T15:31:39.779Z,1001.65
2023-04-12T15:33:39.553Z,1001.66
2023-04-12T15:35:36.980Z,1001.66
2023-04-12T15:37:37.138Z,1001.56
2023-04-12T15:39:37.016Z,1001.42
2023-04-12T15:41:36.977Z,1001.47
2023-04-12T15:43:39.979Z,1001.43
2023-04-12T15:45:37.050Z,1001.43
2023-04-12T15:47:42.103Z,1001.47
2023-04-12T15:49:37.013Z,1001.45
2023-04-12T15:51:37.181Z,1001.45
2023-04-12T15:53:37.153Z,1001.45
2023-04-12T15:55:37.193Z,1001.63
2023-04-12T15:57:37.045Z,1001.66
2023-04-12T15:59:41.285Z,1001.71
2023-04-12T16:01:40.645Z,1001.76
2023-04-12T16:03:37.239Z,1001.76
2023-04-12T16:05:37.544Z,1001.83
2023-04-12T16:07:37.018Z,1001.85
2023-04-12T16:09:36.990Z,1001.74
2023-04-12T16:11:37.078Z,1001.71
2023-04-12T16:13:37.135Z,1001.71
2023-04-12T16:15:37.105Z,1001.88
2023-04-12T16:17:38.100Z,1002.52
2023-04-12T16:19:37.361Z,1002.61
2023-04-12T16:21:37.301Z,1002.61
2023-04-12T16:23:37.072Z,1002.72
2023-04-12T16:25:37.055Z,1002.73
2023-04-12T16:27:37.079Z,1002.82
2023-04-12T16:29:39.597Z,1002.90
2023-04-12T16:31:37.116Z,1002.90
2023-04-12T16:33:37.077Z,1002.90
2023-04-12T16:35:37.145Z,1003.03
2023-04-12T16:37:37.161Z,1003.03
2023-04-12T16:39:37.286Z,1003.03
2023-04-12T16:41:37.058Z,1003.03
2023-04-12T16:43:37.589Z,1002.94
2023-04-12T16:45:37.113Z,1002.90
2023-04-12T16:47:37.288Z,1002.98
2023-04-12T16:49:38.254Z,1002.98
2023-04-12T16:51:37.594Z,1002.98
2023-04-12T16:53:37.084Z,1003.06
2023-04-12T16:55:37.077Z,1002.99
2023-04-12T16:57:37.038Z,1003.00
2023-04-12T16:59:37.293Z,1003.00
2023-04-12T17:01:42.006Z,1003.04
2023-04-12T17:03:37.214Z,1003.03
2023-04-12T17:05:37.308Z,1002.97
2023-04-12T17:07:38.151Z,1003.01
2023-04-12T17:09:37.116Z,1003.01
2023-04-12T17:11:37.081Z,1003.04
2023-04-12T17:13:37.065Z,1003.04
2023-04-12T17:15:37.269Z,1003.07
2023-04-12T17:17:37.139Z,1003.07
2023-04-12T17:19:41.980Z,1003.07
2023-04-12T17:21:37.118Z,1003.00
2023-04-12T17:23:37.095Z,1002.98
2023-04-12T17:25:37.234Z,1002.97
2023-04-12T17:27:37.178Z,1002.97
2023-04-12T17:31:37.378Z,1002.88
2023-04-12T17:33:42.209Z,1002.90
2023-04-12T17:37:37.312Z,1002.99
2023-04-12T17:41:59.441Z,1002.90
2023-04-12T17:43:59.529Z,1003.01
2023-04-12T17:45:59.533Z,1003.02
2023-04-12T17:47:59.481Z,1003.02
2023-04-12T17:49:59.495Z,1003.08
2023-04-12T17:51:59.393Z,1002.99
2023-04-12T17:53:59.707Z,1002.99
2023-04-12T17:55:59.507Z,1002.99
2023-04-12T17:58:00.647Z,1003.20
2023-04-12T17:59:59.868Z,1003.20
2023-04-12T18:01:59.506Z,1003.33
2023-04-12T18:04:00.314Z,1003.41
2023-04-12T18:05:59.515Z,1003.41
2023-04-12T18:07:59.468Z,1003.48
2023-04-12T18:09:59.543Z,1003.53
2023-04-12T18:11:59.773Z,1003.59
2023-04-12T18:13:59.536Z,1003.72
2023-04-12T18:15:59.664Z,1003.72
2023-04-12T18:17:59.501Z,1003.82
2023-04-12T18:20:01.896Z,1003.84
2023-04-12T18:21:59.406Z,1003.77
2023-04-12T18:23:59.692Z,1003.77
2023-04-12T18:25:59.453Z,1003.69
2023-04-12T18:27:59.500Z,1003.71
2023-04-12T18:29:59.438Z,1003.59
2023-04-12T18:31:59.420Z,1003.63
2023-04-12T18:34:08.525Z,1003.63
2023-04-12T18:35:59.429Z,1003.63
2023-04-12T18:38:04.491Z,1003.59
2023-04-12T18:39:59.469Z,1003.52
2023-04-12T18:41:59.440Z,1003.56
2023-04-12T18:43:59.743Z,1003.56
2023-04-12T18:45:59.582Z,1003.51
2023-04-12T18:47:59.638Z,1003.54
2023-04-12T18:49:59.400Z,1003.58
2023-04-12T18:52:05.202Z,1003.58
2023-04-12T18:53:59.603Z,1003.61
2023-04-12T18:55:59.440Z,1003.62
2023-04-12T18:57:59.426Z,1003.55
2023-04-12T18:59:59.758Z,1003.57
2023-04-12T19:01:59.730Z,1003.57
2023-04-12T19:04:04.033Z,1003.57
2023-04-12T19:05:59.481Z,1003.65
2023-04-12T19:07:59.533Z,1003.71
2023-04-12T19:09:59.775Z,1003.66
2023-04-12T19:11:59.415Z,1003.66
2023-04-12T19:13:59.963Z,1003.71
2023-04-12T19:15:59.513Z,1003.71
2023-04-12T19:18:01.456Z,1003.78
2023-04-12T19:19:59.589Z,1003.78
2023-04-12T19:21:59.470Z,1003.77
2023-04-12T19:23:59.742Z,1003.73
2023-04-12T19:26:59.417Z,1003.65
2023-04-12T19:28:59.569Z,1003.58
2023-04-12T19:30:59.709Z,1003.59
2023-04-12T19:32:59.646Z,1003.58
2023-04-12T19:34:59.629Z,1003.58
2023-04-12T19:36:59.637Z,1003.53
2023-04-12T19:38:59.868Z,1003.53
2023-04-12T19:40:59.630Z,1003.61
2023-04-12T19:42:59.476Z,1003.61
2023-04-12T19:44:59.522Z,1003.61
2023-04-12T19:48:59.781Z,1003.86
2023-04-12T19:50:59.608Z,1003.89
2023-04-12T19:53:00.032Z,1003.89
2023-04-12T19:55:01.690Z,1003.91
2023-04-12T19:56:59.489Z,1003.91
2023-04-12T19:58:59.742Z,1003.98
2023-04-12T20:01:03.054Z,1003.95
2023-04-12T20:02:59.602Z,1003.95
2023-04-12T20:04:59.863Z,1003.73
2023-04-12T20:06:59.553Z,1003.69
2023-04-12T20:08:59.916Z,1003.82
2023-04-12T20:11:03.342Z,1003.86
2023-04-12T20:12:59.594Z,1003.86
2023-04-12T20:14:59.602Z,1003.89
2023-04-12T20:16:59.553Z,1003.88
2023-04-12T20:18:59.689Z,1003.95
2023-04-12T20:20:59.588Z,1003.95
2023-04-12T20:22:59.573Z,1003.92
2023-04-12T20:24:59.592Z,1003.90
2023-04-12T20:26:59.636Z,1003.86
2023-04-12T20:29:00.026Z,1003.84
2023-04-12T20:30:59.605Z,1003.84
2023-04-12T20:32:59.550Z,1003.75
2023-04-12T20:34:59.761Z,1003.66
2023-04-12T20:37:00.356Z,1003.66
2023-04-12T20:38:59.956Z,1003.61
2023-04-12T20:40:59.997Z,1003.61
2023-04-12T20:42:59.830Z,1003.60
2023-04-12T20:45:00.343Z,1003.62
2023-04-12T20:46:59.580Z,1003.59
2023-04-12T20:48:59.925Z,1003.54
2023-04-12T20:50:59.842Z,1003.54
2023-04-12T20:52:59.493Z,1003.43
2023-04-12T20:54:59.480Z,1003.54
2023-04-12T20:56:59.652Z,1003.63
2023-04-12T20:58:59.770Z,1003.63
2023-04-12T21:00:59.556Z,1003.76
2023-04-12T21:03:00.066Z,1003.82
2023-04-12T21:04:59.576Z,1003.93
2023-04-12T21:06:59.552Z,1004.04
2023-04-12T21:08:59.907Z,1004.04
2023-04-12T21:10:59.500Z,1004.09
2023-04-12T21:12:59.464Z,1004.17
2023-04-12T21:14:59.589Z,1004.23
2023-04-12T21:16:59.900Z,1004.23
2023-04-12T21:19:00.610Z,1004.23
2023-04-12T21:20:59.694Z,1004.31
2023-04-12T21:22:59.493Z,1004.28
2023-04-12T21:25:00.269Z,1004.34
2023-04-12T21:26:59.520Z,1004.34
2023-04-12T21:28:59.607Z,1004.44
2023-04-12T21:30:59.618Z,1004.53
2023-04-12T21:32:59.650Z,1004.58
2023-04-12T21:34:59.508Z,1004.59
2023-04-12T21:36:59.857Z,1004.59
2023-04-12T21:38:59.700Z,1004.66
2023-04-12T21:40:59.577Z,1004.72
2023-04-12T21:42:59.752Z,1004.82
2023-04-12T21:44:59.701Z,1004.81
2023-04-12T21:46:59.886Z,1004.81
2023-04-12T21:48:59.854Z,1004.84
2023-04-12T21:50:59.572Z,1004.93
2023-04-12T21:52:59.629Z,1005.01
2023-04-12T21:54:59.690Z,1005.01
2023-04-12T21:56:59.924Z,1005.19
2023-04-12T21:58:59.677Z,1005.19
2023-04-12T22:01:00.147Z,1005.38
2023-04-12T22:02:59.716Z,1005.50
2023-04-12T22:04:59.632Z,1005.50
2023-04-12T22:06:59.614Z,1005.54
2023-04-12T22:08:59.745Z,1005.45
2023-04-12T22:10:59.613Z,1005.32
2023-04-12T22:12:59.662Z,1005.23
2023-04-12T22:14:59.715Z,1005.23
2023-04-12T22:17:04.643Z,1005.18
2023-04-12T22:19:00.139Z,1005.05
2023-04-12T22:20:59.580Z,1005.13
2023-04-12T22:22:59.808Z,1005.13
2023-04-12T22:25:01.421Z,1005.24
2023-04-12T22:26:59.700Z,1005.32
2023-04-12T22:28:59.556Z,1005.44
2023-04-12T22:30:59.669Z,1005.52
2023-04-12T22:32:59.685Z,1005.52
2023-04-12T22:35:08.415Z,1005.67
2023-04-12T22:36:59.491Z,1005.62
2023-04-12T22:38:59.516Z,1005.62
2023-04-12T22:41:00.234Z,1005.39
2023-04-12T22:42:59.555Z,1005.39
2023-04-12T22:44:59.557Z,1005.35
2023-04-12T22:46:59.546Z,1005.32
2023-04-12T22:48:59.661Z,1005.30
2023-04-12T22:50:59.952Z,1005.30
2023-04-12T22:53:04.474Z,1005.23
2023-04-12T22:54:59.576Z,1005.18
2023-04-12T22:56:59.526Z,1005.27
2023-04-12T22:58:59.616Z,1005.38
2023-04-12T23:00:59.724Z,1005.38
2023-04-12T23:02:59.591Z,1005.35
2023-04-12T23:05:59.556Z,1005.33
2023-04-12T23:07:59.554Z,1005.47
2023-04-12T23:09:59.553Z,1005.52
2023-04-12T23:11:59.589Z,1005.56
2023-04-12T23:13:04.417Z,1005.56
2023-04-12T23:15:59.640Z,1005.54
2023-04-12T23:17:59.597Z,1005.46
2023-04-12T23:19:59.599Z,1005.46
2023-04-12T23:22:01.323Z,1005.52
2023-04-12T23:24:04.539Z,1005.52
2023-04-12T23:25:59.610Z,1005.47
2023-04-12T23:27:59.747Z,1005.47
2023-04-12T23:29:59.668Z,1005.52
2023-04-12T23:31:11.416Z,1005.52
2023-04-12T23:33:11.280Z,1005.52
2023-04-12T23:35:11.561Z,1005.50
2023-04-12T23:37:11.382Z,1005.66
2023-04-12T23:39:11.406Z,1005.66
2023-04-12T23:41:12.120Z,1005.51
2023-04-12T23:43:11.508Z,1005.47
2023-04-12T23:45:11.352Z,1005.63
2023-04-12T23:47:16.286Z,1005.68
2023-04-12T23:50:11.364Z,1005.62
2023-04-12T23:52:11.318Z,1005.62
2023-04-12T23:54:11.394Z,1005.59
2023-04-12T23:55:14.256Z,1005.59
2023-04-12T23:57:20.025Z,1005.59
